sensor_id;sensor_type;location;lat;lon;timestamp;P1;durP1;ratioP1;P2;durP2;ratioP2
55190;SDS011;41070;50.360;18.742;2022-11-11T00:01:35;35.80;;;16.90;;
55190;SDS011;41070;50.360;18.742;2022-11-11T00:04:03;30.60;;;17.10;;
55190;SDS011;41070;50.360;18.742;2022-11-11T00:06:30;34.70;;;18.70;;
55190;SDS011;41070;50.360;18.742;2022-11-11T00:08:58;37.40;;;19.80;;
55190;SDS011;41070;50.360;18.742;2022-11-11T00:11:26;38.30;;;19.70;;
55190;SDS011;41070;50.360;18.742;2022-11-11T00:13:53;36.40;;;18.70;;
55190;SDS011;41070;50.360;18.742;2022-11-11T00:16:21;38.30;;;18.80;;
55190;SDS011;41070;50.360;18.742;2022-11-11T00:18:49;39.20;;;20.50;;
55190;SDS011;41070;50.360;18.742;2022-11-11T00:21:34;38.80;;;19.70;;
55190;SDS011;41070;50.360;18.742;2022-11-11T00:24:27;38.90;;;19.40;;
55190;SDS011;41070;50.360;18.742;2022-11-11T00:27:13;34.30;;;18.80;;
55190;SDS011;41070;50.360;18.742;2022-11-11T00:29:45;38.80;;;21.50;;
55190;SDS011;41070;50.360;18.742;2022-11-11T00:32:14;37.40;;;18.70;;
55190;SDS011;41070;50.360;18.742;2022-11-11T00:34:53;40.30;;;20.90;;
55190;SDS011;41070;50.360;18.742;2022-11-11T00:37:39;40.40;;;20.80;;
55190;SDS011;41070;50.360;18.742;2022-11-11T00:40:09;37.70;;;19.00;;
55190;SDS011;41070;50.360;18.742;2022-11-11T00:42:37;40.10;;;20.00;;
55190;SDS011;41070;50.360;18.742;2022-11-11T00:45:06;38.30;;;21.70;;
55190;SDS011;41070;50.360;18.742;2022-11-11T00:47:34;39.10;;;20.80;;
55190;SDS011;41070;50.360;18.742;2022-11-11T00:50:24;41.50;;;18.10;;
55190;SDS011;41070;50.360;18.742;2022-11-11T00:53:13;37.00;;;19.50;;
55190;SDS011;41070;50.360;18.742;2022-11-11T00:55:43;35.40;;;18.50;;
55190;SDS011;41070;50.360;18.742;2022-11-11T00:58:11;29.80;;;18.30;;
55190;SDS011;41070;50.360;18.742;2022-11-11T01:00:38;41.30;;;20.50;;
55190;SDS011;41070;50.360;18.742;2022-11-11T01:03:06;38.20;;;18.50;;
55190;SDS011;41070;50.360;18.742;2022-11-11T01:05:35;34.80;;;19.10;;
55190;SDS011;41070;50.360;18.742;2022-11-11T01:08:04;38.40;;;19.60;;
55190;SDS011;41070;50.360;18.742;2022-11-11T01:10:32;39.20;;;20.10;;
55190;SDS011;41070;50.360;18.742;2022-11-11T01:13:13;39.50;;;21.10;;
55190;SDS011;41070;50.360;18.742;2022-11-11T01:15:44;46.70;;;21.60;;
55190;SDS011;41070;50.360;18.742;2022-11-11T01:18:15;44.50;;;22.00;;
55190;SDS011;41070;50.360;18.742;2022-11-11T01:20:46;47.70;;;24.50;;
55190;SDS011;41070;50.360;18.742;2022-11-11T01:23:14;49.70;;;25.10;;
55190;SDS011;41070;50.360;18.742;2022-11-11T01:25:42;53.40;;;24.60;;
55190;SDS011;41070;50.360;18.742;2022-11-11T01:28:11;51.30;;;26.50;;
55190;SDS011;41070;50.360;18.742;2022-11-11T01:30:39;48.40;;;24.90;;
55190;SDS011;41070;50.360;18.742;2022-11-11T01:33:08;60.80;;;28.70;;
55190;SDS011;41070;50.360;18.742;2022-11-11T01:35:37;53.60;;;25.90;;
55190;SDS011;41070;50.360;18.742;2022-11-11T01:38:07;49.50;;;27.70;;
55190;SDS011;41070;50.360;18.742;2022-11-11T01:40:43;56.10;;;27.80;;
55190;SDS011;41070;50.360;18.742;2022-11-11T01:43:20;52.20;;;26.90;;
55190;SDS011;41070;50.360;18.742;2022-11-11T01:51:11;57.20;;;27.60;;
55190;SDS011;41070;50.360;18.742;2022-11-11T01:53:46;61.10;;;30.30;;
55190;SDS011;41070;50.360;18.742;2022-11-11T01:56:18;56.70;;;28.10;;
55190;SDS011;41070;50.360;18.742;2022-11-11T01:58:47;55.90;;;29.50;;
55190;SDS011;41070;50.360;18.742;2022-11-11T02:01:16;53.40;;;27.90;;
55190;SDS011;41070;50.360;18.742;2022-11-11T02:03:44;56.40;;;27.90;;
55190;SDS011;41070;50.360;18.742;2022-11-11T02:06:34;55.40;;;28.90;;
55190;SDS011;41070;50.360;18.742;2022-11-11T02:09:03;54.80;;;27.60;;
55190;SDS011;41070;50.360;18.742;2022-11-11T02:11:33;55.80;;;29.40;;
55190;SDS011;41070;50.360;18.742;2022-11-11T02:14:20;52.10;;;26.80;;
55190;SDS011;41070;50.360;18.742;2022-11-11T02:17:05;52.80;;;26.70;;
55190;SDS011;41070;50.360;18.742;2022-11-11T02:19:47;51.60;;;27.60;;
55190;SDS011;41070;50.360;18.742;2022-11-11T02:22:23;51.50;;;27.80;;
55190;SDS011;41070;50.360;18.742;2022-11-11T02:24:56;53.90;;;25.80;;
55190;SDS011;41070;50.360;18.742;2022-11-11T02:27:25;46.90;;;25.60;;
55190;SDS011;41070;50.360;18.742;2022-11-11T02:29:57;54.70;;;26.10;;
55190;SDS011;41070;50.360;18.742;2022-11-11T02:32:26;47.50;;;26.40;;
55190;SDS011;41070;50.360;18.742;2022-11-11T02:34:54;48.60;;;25.80;;
55190;SDS011;41070;50.360;18.742;2022-11-11T02:37:23;51.20;;;26.10;;
55190;SDS011;41070;50.360;18.742;2022-11-11T02:39:53;50.90;;;26.60;;
55190;SDS011;41070;50.360;18.742;2022-11-11T02:42:26;49.40;;;25.40;;
55190;SDS011;41070;50.360;18.742;2022-11-11T02:44:54;46.50;;;25.90;;
55190;SDS011;41070;50.360;18.742;2022-11-11T02:47:23;50.40;;;25.60;;
55190;SDS011;41070;50.360;18.742;2022-11-11T02:49:53;48.20;;;24.30;;
55190;SDS011;41070;50.360;18.742;2022-11-11T02:52:20;47.80;;;25.80;;
55190;SDS011;41070;50.360;18.742;2022-11-11T02:54:48;45.50;;;24.40;;
55190;SDS011;41070;50.360;18.742;2022-11-11T02:57:16;47.80;;;25.00;;
55190;SDS011;41070;50.360;18.742;2022-11-11T02:59:44;42.50;;;23.70;;
55190;SDS011;41070;50.360;18.742;2022-11-11T03:02:11;48.30;;;25.60;;
55190;SDS011;41070;50.360;18.742;2022-11-11T03:04:39;51.70;;;26.20;;
55190;SDS011;41070;50.360;18.742;2022-11-11T03:07:07;45.40;;;26.30;;
55190;SDS011;41070;50.360;18.742;2022-11-11T03:09:34;42.40;;;23.40;;
55190;SDS011;41070;50.360;18.742;2022-11-11T03:12:02;44.50;;;24.90;;
55190;SDS011;41070;50.360;18.742;2022-11-11T03:14:30;43.00;;;23.60;;
55190;SDS011;41070;50.360;18.742;2022-11-11T03:16:57;47.40;;;23.30;;
55190;SDS011;41070;50.360;18.742;2022-11-11T03:19:43;43.30;;;22.00;;
55190;SDS011;41070;50.360;18.742;2022-11-11T03:22:10;37.10;;;22.00;;
55190;SDS011;41070;50.360;18.742;2022-11-11T03:24:38;36.90;;;21.70;;
55190;SDS011;41070;50.360;18.742;2022-11-11T03:27:23;38.70;;;21.00;;
55190;SDS011;41070;50.360;18.742;2022-11-11T03:29:51;43.80;;;22.00;;
55190;SDS011;41070;50.360;18.742;2022-11-11T03:32:18;43.80;;;22.90;;
55190;SDS011;41070;50.360;18.742;2022-11-11T03:34:46;43.20;;;23.00;;
55190;SDS011;41070;50.360;18.742;2022-11-11T03:37:13;40.20;;;21.90;;
55190;SDS011;41070;50.360;18.742;2022-11-11T03:39:59;45.60;;;23.20;;
55190;SDS011;41070;50.360;18.742;2022-11-11T03:42:27;48.20;;;24.20;;
55190;SDS011;41070;50.360;18.742;2022-11-11T03:44:54;44.10;;;24.20;;
55190;SDS011;41070;50.360;18.742;2022-11-11T03:47:22;38.90;;;21.60;;
55190;SDS011;41070;50.360;18.742;2022-11-11T03:49:50;42.60;;;23.50;;
55190;SDS011;41070;50.360;18.742;2022-11-11T03:52:17;43.60;;;23.30;;
55190;SDS011;41070;50.360;18.742;2022-11-11T03:54:45;40.10;;;21.80;;
55190;SDS011;41070;50.360;18.742;2022-11-11T03:57:12;43.90;;;22.90;;
55190;SDS011;41070;50.360;18.742;2022-11-11T03:59:58;41.90;;;22.50;;
55190;SDS011;41070;50.360;18.742;2022-11-11T04:02:26;44.50;;;22.00;;
55190;SDS011;41070;50.360;18.742;2022-11-11T04:05:12;36.30;;;18.50;;
55190;SDS011;41070;50.360;18.742;2022-11-11T04:07:57;35.30;;;18.60;;
55190;SDS011;41070;50.360;18.742;2022-11-11T04:10:42;39.00;;;19.70;;
55190;SDS011;41070;50.360;18.742;2022-11-11T04:13:10;42.20;;;21.30;;
55190;SDS011;41070;50.360;18.742;2022-11-11T04:15:55;36.20;;;20.10;;
55190;SDS011;41070;50.360;18.742;2022-11-11T04:18:35;44.90;;;20.50;;
55190;SDS011;41070;50.360;18.742;2022-11-11T04:21:21;41.60;;;19.70;;
55190;SDS011;41070;50.360;18.742;2022-11-11T04:24:08;37.90;;;18.60;;
55190;SDS011;41070;50.360;18.742;2022-11-11T04:26:55;43.90;;;22.70;;
55190;SDS011;41070;50.360;18.742;2022-11-11T04:29:24;39.60;;;20.80;;
55190;SDS011;41070;50.360;18.742;2022-11-11T04:31:56;41.30;;;21.50;;
55190;SDS011;41070;50.360;18.742;2022-11-11T04:34:46;43.00;;;21.50;;
55190;SDS011;41070;50.360;18.742;2022-11-11T04:37:20;40.70;;;20.10;;
55190;SDS011;41070;50.360;18.742;2022-11-11T04:39:48;38.10;;;20.10;;
55190;SDS011;41070;50.360;18.742;2022-11-11T04:42:34;38.40;;;19.40;;
55190;SDS011;41070;50.360;18.742;2022-11-11T04:45:04;37.00;;;18.90;;
55190;SDS011;41070;50.360;18.742;2022-11-11T04:50:31;35.60;;;17.60;;
55190;SDS011;41070;50.360;18.742;2022-11-11T04:53:03;34.00;;;18.00;;
55190;SDS011;41070;50.360;18.742;2022-11-11T04:55:33;30.60;;;16.60;;
55190;SDS011;41070;50.360;18.742;2022-11-11T04:58:28;36.80;;;18.20;;
55190;SDS011;41070;50.360;18.742;2022-11-11T05:00:58;33.10;;;17.00;;
55190;SDS011;41070;50.360;18.742;2022-11-11T05:03:26;38.80;;;19.40;;
55190;SDS011;41070;50.360;18.742;2022-11-11T05:05:54;39.50;;;18.80;;
55190;SDS011;41070;50.360;18.742;2022-11-11T05:08:50;36.90;;;20.20;;
55190;SDS011;41070;50.360;18.742;2022-11-11T05:11:25;34.20;;;17.10;;
55190;SDS011;41070;50.360;18.742;2022-11-11T05:13:58;32.30;;;16.60;;
55190;SDS011;41070;50.360;18.742;2022-11-11T05:16:52;31.70;;;17.50;;
55190;SDS011;41070;50.360;18.742;2022-11-11T05:19:39;33.80;;;17.50;;
55190;SDS011;41070;50.360;18.742;2022-11-11T05:22:34;29.90;;;15.80;;
55190;SDS011;41070;50.360;18.742;2022-11-11T05:25:05;56.10;;;26.80;;
55190;SDS011;41070;50.360;18.742;2022-11-11T05:27:52;84.00;;;28.50;;
55190;SDS011;41070;50.360;18.742;2022-11-11T05:30:20;147.40;;;38.70;;
55190;SDS011;41070;50.360;18.742;2022-11-11T05:32:49;149.00;;;40.40;;
55190;SDS011;41070;50.360;18.742;2022-11-11T05:35:17;57.50;;;22.50;;
55190;SDS011;41070;50.360;18.742;2022-11-11T05:37:45;47.20;;;21.50;;
55190;SDS011;41070;50.360;18.742;2022-11-11T05:40:35;45.60;;;19.90;;
55190;SDS011;41070;50.360;18.742;2022-11-11T05:43:02;34.40;;;18.70;;
55190;SDS011;41070;50.360;18.742;2022-11-11T05:45:30;38.60;;;19.70;;
55190;SDS011;41070;50.360;18.742;2022-11-11T05:48:01;36.70;;;19.50;;
55190;SDS011;41070;50.360;18.742;2022-11-11T05:50:30;34.80;;;18.70;;
55190;SDS011;41070;50.360;18.742;2022-11-11T05:52:57;36.00;;;18.10;;
55190;SDS011;41070;50.360;18.742;2022-11-11T05:55:25;31.30;;;16.30;;
55190;SDS011;41070;50.360;18.742;2022-11-11T05:57:56;31.30;;;17.20;;
55190;SDS011;41070;50.360;18.742;2022-11-11T06:00:28;37.60;;;18.30;;
55190;SDS011;41070;50.360;18.742;2022-11-11T06:03:00;38.10;;;19.60;;
55190;SDS011;41070;50.360;18.742;2022-11-11T06:05:31;36.70;;;19.60;;
55190;SDS011;41070;50.360;18.742;2022-11-11T06:07:58;36.60;;;17.90;;
55190;SDS011;41070;50.360;18.742;2022-11-11T06:10:26;41.90;;;21.70;;
55190;SDS011;41070;50.360;18.742;2022-11-11T06:12:57;37.10;;;19.40;;
55190;SDS011;41070;50.360;18.742;2022-11-11T06:15:31;37.60;;;18.90;;
55190;SDS011;41070;50.360;18.742;2022-11-11T06:17:59;32.80;;;17.40;;
55190;SDS011;41070;50.360;18.742;2022-11-11T06:20:27;34.40;;;17.80;;
55190;SDS011;41070;50.360;18.742;2022-11-11T06:22:55;32.10;;;17.90;;
55190;SDS011;41070;50.360;18.742;2022-11-11T06:25:27;35.90;;;18.60;;
55190;SDS011;41070;50.360;18.742;2022-11-11T06:28:15;36.80;;;17.70;;
55190;SDS011;41070;50.360;18.742;2022-11-11T06:30:44;36.90;;;19.00;;
55190;SDS011;41070;50.360;18.742;2022-11-11T06:33:12;38.20;;;19.40;;
55190;SDS011;41070;50.360;18.742;2022-11-11T06:35:42;43.80;;;20.40;;
55190;SDS011;41070;50.360;18.742;2022-11-11T06:38:10;37.10;;;18.40;;
55190;SDS011;41070;50.360;18.742;2022-11-11T06:40:38;31.70;;;17.40;;
55190;SDS011;41070;50.360;18.742;2022-11-11T06:43:06;35.70;;;19.90;;
55190;SDS011;41070;50.360;18.742;2022-11-11T06:45:34;34.80;;;19.00;;
55190;SDS011;41070;50.360;18.742;2022-11-11T06:48:03;33.80;;;18.60;;
55190;SDS011;41070;50.360;18.742;2022-11-11T06:50:31;29.50;;;17.80;;
55190;SDS011;41070;50.360;18.742;2022-11-11T06:53:03;39.50;;;20.90;;
55190;SDS011;41070;50.360;18.742;2022-11-11T06:55:36;40.80;;;21.40;;
55190;SDS011;41070;50.360;18.742;2022-11-11T06:58:13;40.40;;;21.70;;
55190;SDS011;41070;50.360;18.742;2022-11-11T07:00:43;39.50;;;22.20;;
55190;SDS011;41070;50.360;18.742;2022-11-11T07:03:14;40.30;;;21.30;;
55190;SDS011;41070;50.360;18.742;2022-11-11T07:05:43;36.50;;;20.60;;
55190;SDS011;41070;50.360;18.742;2022-11-11T07:08:12;38.60;;;19.90;;
55190;SDS011;41070;50.360;18.742;2022-11-11T07:10:43;41.50;;;20.90;;
55190;SDS011;41070;50.360;18.742;2022-11-11T07:13:13;38.50;;;19.70;;
55190;SDS011;41070;50.360;18.742;2022-11-11T07:15:42;33.80;;;20.10;;
55190;SDS011;41070;50.360;18.742;2022-11-11T07:18:10;38.70;;;18.90;;
55190;SDS011;41070;50.360;18.742;2022-11-11T07:20:38;34.30;;;19.70;;
55190;SDS011;41070;50.360;18.742;2022-11-11T07:23:07;35.60;;;18.60;;
55190;SDS011;41070;50.360;18.742;2022-11-11T07:25:34;39.50;;;18.90;;
55190;SDS011;41070;50.360;18.742;2022-11-11T07:28:02;36.10;;;18.60;;
55190;SDS011;41070;50.360;18.742;2022-11-11T07:38:13;34.90;;;18.60;;
55190;SDS011;41070;50.360;18.742;2022-11-11T07:40:40;37.10;;;19.20;;
55190;SDS011;41070;50.360;18.742;2022-11-11T07:43:08;39.50;;;19.30;;
55190;SDS011;41070;50.360;18.742;2022-11-11T07:45:35;36.50;;;21.00;;
55190;SDS011;41070;50.360;18.742;2022-11-11T07:48:03;33.30;;;18.00;;
55190;SDS011;41070;50.360;18.742;2022-11-11T07:50:31;33.40;;;17.40;;
55190;SDS011;41070;50.360;18.742;2022-11-11T07:52:59;32.50;;;17.40;;
55190;SDS011;41070;50.360;18.742;2022-11-11T07:55:27;33.10;;;17.60;;
55190;SDS011;41070;50.360;18.742;2022-11-11T07:57:54;36.40;;;18.30;;
55190;SDS011;41070;50.360;18.742;2022-11-11T08:00:24;36.20;;;18.40;;
55190;SDS011;41070;50.360;18.742;2022-11-11T08:02:52;33.90;;;18.90;;
55190;SDS011;41070;50.360;18.742;2022-11-11T08:05:20;34.70;;;18.10;;
55190;SDS011;41070;50.360;18.742;2022-11-11T08:07:47;41.40;;;19.10;;
55190;SDS011;41070;50.360;18.742;2022-11-11T08:10:15;33.50;;;17.80;;
55190;SDS011;41070;50.360;18.742;2022-11-11T08:12:43;37.00;;;18.70;;
55190;SDS011;41070;50.360;18.742;2022-11-11T08:15:29;36.70;;;18.40;;
55190;SDS011;41070;50.360;18.742;2022-11-11T08:17:56;33.60;;;16.10;;
55190;SDS011;41070;50.360;18.742;2022-11-11T08:20:24;27.90;;;15.90;;
55190;SDS011;41070;50.360;18.742;2022-11-11T08:22:52;32.80;;;17.20;;
55190;SDS011;41070;50.360;18.742;2022-11-11T08:25:22;38.50;;;19.40;;
55190;SDS011;41070;50.360;18.742;2022-11-11T08:27:57;32.70;;;17.80;;
55190;SDS011;41070;50.360;18.742;2022-11-11T08:30:30;28.30;;;16.70;;
55190;SDS011;41070;50.360;18.742;2022-11-11T08:32:59;33.00;;;17.30;;
55190;SDS011;41070;50.360;18.742;2022-11-11T08:35:29;27.50;;;15.70;;
55190;SDS011;41070;50.360;18.742;2022-11-11T08:38:01;27.10;;;14.40;;
55190;SDS011;41070;50.360;18.742;2022-11-11T08:40:29;27.40;;;14.10;;
55190;SDS011;41070;50.360;18.742;2022-11-11T08:42:57;29.80;;;14.20;;
55190;SDS011;41070;50.360;18.742;2022-11-11T08:45:25;29.70;;;14.60;;
55190;SDS011;41070;50.360;18.742;2022-11-11T08:47:53;24.00;;;13.30;;
55190;SDS011;41070;50.360;18.742;2022-11-11T08:50:20;24.40;;;13.00;;
55190;SDS011;41070;50.360;18.742;2022-11-11T08:52:48;29.30;;;14.00;;
55190;SDS011;41070;50.360;18.742;2022-11-11T08:55:22;21.10;;;12.20;;
55190;SDS011;41070;50.360;18.742;2022-11-11T08:57:59;22.30;;;11.30;;
55190;SDS011;41070;50.360;18.742;2022-11-11T09:00:32;23.40;;;12.20;;
55190;SDS011;41070;50.360;18.742;2022-11-11T09:03:01;23.00;;;12.10;;
55190;SDS011;41070;50.360;18.742;2022-11-11T09:05:34;25.20;;;12.70;;
55190;SDS011;41070;50.360;18.742;2022-11-11T09:08:09;26.40;;;13.30;;
55190;SDS011;41070;50.360;18.742;2022-11-11T09:10:52;23.80;;;11.40;;
55190;SDS011;41070;50.360;18.742;2022-11-11T09:13:25;19.10;;;11.00;;
55190;SDS011;41070;50.360;18.742;2022-11-11T09:15:53;22.30;;;11.80;;
55190;SDS011;41070;50.360;18.742;2022-11-11T09:18:23;18.00;;;10.30;;
55190;SDS011;41070;50.360;18.742;2022-11-11T09:20:56;21.80;;;12.60;;
55190;SDS011;41070;50.360;18.742;2022-11-11T09:23:25;21.00;;;11.30;;
55190;SDS011;41070;50.360;18.742;2022-11-11T09:32:15;17.80;;;9.90;;
55190;SDS011;41070;50.360;18.742;2022-11-11T09:34:48;22.10;;;11.10;;
55190;SDS011;41070;50.360;18.742;2022-11-11T09:37:21;23.00;;;12.20;;
55190;SDS011;41070;50.360;18.742;2022-11-11T09:40:15;19.70;;;10.30;;
55190;SDS011;41070;50.360;18.742;2022-11-11T09:51:27;25.30;;;11.60;;
55190;SDS011;41070;50.360;18.742;2022-11-11T09:54:04;21.20;;;11.70;;
55190;SDS011;41070;50.360;18.742;2022-11-11T09:56:39;22.90;;;11.70;;
55190;SDS011;41070;50.360;18.742;2022-11-11T09:59:18;26.20;;;11.80;;
55190;SDS011;41070;50.360;18.742;2022-11-11T10:01:55;23.90;;;11.90;;
55190;SDS011;41070;50.360;18.742;2022-11-11T10:07:25;22.90;;;12.00;;
55190;SDS011;41070;50.360;18.742;2022-11-11T10:10:07;24.70;;;12.60;;
55190;SDS011;41070;50.360;18.742;2022-11-11T10:12:57;21.00;;;11.40;;
55190;SDS011;41070;50.360;18.742;2022-11-11T10:15:33;23.60;;;11.40;;
55190;SDS011;41070;50.360;18.742;2022-11-11T10:18:23;25.20;;;12.90;;
55190;SDS011;41070;50.360;18.742;2022-11-11T10:20:56;23.50;;;12.20;;
55190;SDS011;41070;50.360;18.742;2022-11-11T10:23:30;18.30;;;10.60;;
55190;SDS011;41070;50.360;18.742;2022-11-11T10:26:10;19.50;;;10.50;;
55190;SDS011;41070;50.360;18.742;2022-11-11T10:29:05;21.70;;;12.60;;
55190;SDS011;41070;50.360;18.742;2022-11-11T10:31:45;21.10;;;10.10;;
55190;SDS011;41070;50.360;18.742;2022-11-11T10:34:33;21.00;;;10.30;;
55190;SDS011;41070;50.360;18.742;2022-11-11T10:37:18;23.30;;;12.50;;
55190;SDS011;41070;50.360;18.742;2022-11-11T10:43:24;21.30;;;10.90;;
55190;SDS011;41070;50.360;18.742;2022-11-11T10:51:20;27.50;;;14.40;;
55190;SDS011;41070;50.360;18.742;2022-11-11T11:05:45;20.30;;;10.80;;
55190;SDS011;41070;50.360;18.742;2022-11-11T11:11:08;23.40;;;11.30;;
55190;SDS011;41070;50.360;18.742;2022-11-11T11:13:51;24.40;;;11.80;;
55190;SDS011;41070;50.360;18.742;2022-11-11T11:16:34;19.70;;;10.40;;
55190;SDS011;41070;50.360;18.742;2022-11-11T11:19:16;25.60;;;12.50;;
55190;SDS011;41070;50.360;18.742;2022-11-11T11:22:01;23.00;;;11.80;;
55190;SDS011;41070;50.360;18.742;2022-11-11T11:24:35;17.70;;;10.70;;
55190;SDS011;41070;50.360;18.742;2022-11-11T11:27:12;19.50;;;11.20;;
55190;SDS011;41070;50.360;18.742;2022-11-11T11:34:11;23.00;;;12.60;;
55190;SDS011;41070;50.360;18.742;2022-11-11T11:36:54;25.30;;;13.10;;
55190;SDS011;41070;50.360;18.742;2022-11-11T11:39:31;18.40;;;10.80;;
55190;SDS011;41070;50.360;18.742;2022-11-11T11:42:05;21.50;;;11.70;;
55190;SDS011;41070;50.360;18.742;2022-11-11T11:44:38;18.30;;;10.20;;
55190;SDS011;41070;50.360;18.742;2022-11-11T11:50:11;19.10;;;11.00;;
55190;SDS011;41070;50.360;18.742;2022-11-11T11:52:44;22.60;;;11.60;;
55190;SDS011;41070;50.360;18.742;2022-11-11T11:55:24;21.90;;;11.60;;
55190;SDS011;41070;50.360;18.742;2022-11-11T12:00:53;21.50;;;12.00;;
55190;SDS011;41070;50.360;18.742;2022-11-11T12:37:28;22.80;;;12.40;;
55190;SDS011;41070;50.360;18.742;2022-11-11T12:40:13;20.40;;;12.90;;
55190;SDS011;41070;50.360;18.742;2022-11-11T12:48:53;19.60;;;10.70;;
55190;SDS011;41070;50.360;18.742;2022-11-11T12:51:45;19.20;;;11.10;;
55190;SDS011;41070;50.360;18.742;2022-11-11T13:05:11;26.40;;;12.70;;
55190;SDS011;41070;50.360;18.742;2022-11-11T13:08:03;25.80;;;14.00;;
55190;SDS011;41070;50.360;18.742;2022-11-11T13:13:17;19.80;;;10.80;;
55190;SDS011;41070;50.360;18.742;2022-11-11T13:16:09;19.90;;;11.00;;
55190;SDS011;41070;50.360;18.742;2022-11-11T13:21:21;23.20;;;11.40;;
55190;SDS011;41070;50.360;18.742;2022-11-11T13:23:56;20.80;;;11.60;;
55190;SDS011;41070;50.360;18.742;2022-11-11T13:26:33;20.80;;;10.30;;
55190;SDS011;41070;50.360;18.742;2022-11-11T13:29:30;18.10;;;11.30;;
55190;SDS011;41070;50.360;18.742;2022-11-11T13:32:07;19.20;;;11.20;;
55190;SDS011;41070;50.360;18.742;2022-11-11T13:34:39;17.70;;;10.30;;
55190;SDS011;41070;50.360;18.742;2022-11-11T13:37:08;18.20;;;9.70;;
55190;SDS011;41070;50.360;18.742;2022-11-11T13:39:48;16.10;;;9.20;;
55190;SDS011;41070;50.360;18.742;2022-11-11T13:42:20;16.40;;;10.30;;
55190;SDS011;41070;50.360;18.742;2022-11-11T13:44:58;13.10;;;8.60;;
55190;SDS011;41070;50.360;18.742;2022-11-11T13:47:32;14.80;;;8.30;;
55190;SDS011;41070;50.360;18.742;2022-11-11T13:50:07;16.20;;;8.70;;
55190;SDS011;41070;50.360;18.742;2022-11-11T13:52:44;17.30;;;8.90;;
55190;SDS011;41070;50.360;18.742;2022-11-11T13:55:24;14.90;;;9.10;;
55190;SDS011;41070;50.360;18.742;2022-11-11T13:57:58;16.00;;;8.20;;
55190;SDS011;41070;50.360;18.742;2022-11-11T14:00:35;13.20;;;8.20;;
55190;SDS011;41070;50.360;18.742;2022-11-11T14:05:45;14.90;;;9.00;;
55190;SDS011;41070;50.360;18.742;2022-11-11T14:08:49;17.00;;;9.30;;
55190;SDS011;41070;50.360;18.742;2022-11-11T14:11:30;14.80;;;8.10;;
55190;SDS011;41070;50.360;18.742;2022-11-11T14:17:00;14.60;;;9.20;;
55190;SDS011;41070;50.360;18.742;2022-11-11T14:19:44;15.30;;;8.80;;
55190;SDS011;41070;50.360;18.742;2022-11-11T14:27:59;19.10;;;9.80;;
55190;SDS011;41070;50.360;18.742;2022-11-11T14:30:37;18.60;;;10.30;;
55190;SDS011;41070;50.360;18.742;2022-11-11T14:33:14;17.60;;;9.90;;
55190;SDS011;41070;50.360;18.742;2022-11-11T14:36:05;18.70;;;11.50;;
55190;SDS011;41070;50.360;18.742;2022-11-11T14:57:47;25.00;;;13.30;;
55190;SDS011;41070;50.360;18.742;2022-11-11T15:00:17;27.00;;;12.50;;
55190;SDS011;41070;50.360;18.742;2022-11-11T15:02:54;24.20;;;12.50;;
55190;SDS011;41070;50.360;18.742;2022-11-11T15:11:49;26.20;;;14.30;;
55190;SDS011;41070;50.360;18.742;2022-11-11T15:24:55;23.90;;;13.80;;
55190;SDS011;41070;50.360;18.742;2022-11-11T15:30:15;26.00;;;14.50;;
55190;SDS011;41070;50.360;18.742;2022-11-11T15:32:51;30.40;;;15.20;;
55190;SDS011;41070;50.360;18.742;2022-11-11T15:35:29;25.20;;;14.90;;
55190;SDS011;41070;50.360;18.742;2022-11-11T15:38:03;28.10;;;15.20;;
55190;SDS011;41070;50.360;18.742;2022-11-11T15:45:49;30.70;;;14.70;;
55190;SDS011;41070;50.360;18.742;2022-11-11T15:53:49;27.70;;;15.50;;
55190;SDS011;41070;50.360;18.742;2022-11-11T15:56:30;33.30;;;17.30;;
55190;SDS011;41070;50.360;18.742;2022-11-11T15:59:22;31.70;;;17.30;;
55190;SDS011;41070;50.360;18.742;2022-11-11T16:01:51;29.60;;;15.10;;
55190;SDS011;41070;50.360;18.742;2022-11-11T16:04:20;30.60;;;17.30;;
55190;SDS011;41070;50.360;18.742;2022-11-11T16:06:50;37.80;;;18.50;;
55190;SDS011;41070;50.360;18.742;2022-11-11T16:09:20;27.30;;;15.20;;
55190;SDS011;41070;50.360;18.742;2022-11-11T16:11:53;34.30;;;16.60;;
55190;SDS011;41070;50.360;18.742;2022-11-11T16:14:25;33.00;;;17.80;;
55190;SDS011;41070;50.360;18.742;2022-11-11T16:17:01;34.60;;;17.80;;
55190;SDS011;41070;50.360;18.742;2022-11-11T16:19:31;32.10;;;18.00;;
55190;SDS011;41070;50.360;18.742;2022-11-11T16:24:38;36.40;;;19.10;;
55190;SDS011;41070;50.360;18.742;2022-11-11T16:27:10;37.50;;;18.20;;
55190;SDS011;41070;50.360;18.742;2022-11-11T16:29:41;32.00;;;17.60;;
55190;SDS011;41070;50.360;18.742;2022-11-11T16:32:30;34.30;;;17.90;;
55190;SDS011;41070;50.360;18.742;2022-11-11T16:35:19;36.80;;;18.70;;
55190;SDS011;41070;50.360;18.742;2022-11-11T16:38:04;39.50;;;20.90;;
55190;SDS011;41070;50.360;18.742;2022-11-11T16:46:04;38.60;;;19.10;;
55190;SDS011;41070;50.360;18.742;2022-11-11T16:51:13;43.10;;;21.90;;
55190;SDS011;41070;50.360;18.742;2022-11-11T16:53:48;43.40;;;21.70;;
55190;SDS011;41070;50.360;18.742;2022-11-11T16:56:23;38.00;;;19.40;;
55190;SDS011;41070;50.360;18.742;2022-11-11T17:01:42;40.10;;;20.80;;
55190;SDS011;41070;50.360;18.742;2022-11-11T17:04:13;32.90;;;19.20;;
55190;SDS011;41070;50.360;18.742;2022-11-11T17:06:48;35.00;;;19.10;;
55190;SDS011;41070;50.360;18.742;2022-11-11T17:12:09;35.00;;;18.70;;
55190;SDS011;41070;50.360;18.742;2022-11-11T17:14:37;35.40;;;19.30;;
55190;SDS011;41070;50.360;18.742;2022-11-11T17:17:06;35.00;;;19.90;;
55190;SDS011;41070;50.360;18.742;2022-11-11T17:19:35;42.10;;;21.50;;
55190;SDS011;41070;50.360;18.742;2022-11-11T17:22:08;36.80;;;20.70;;
55190;SDS011;41070;50.360;18.742;2022-11-11T17:24:37;37.60;;;19.90;;
55190;SDS011;41070;50.360;18.742;2022-11-11T17:27:05;37.70;;;21.70;;
55190;SDS011;41070;50.360;18.742;2022-11-11T17:29:33;40.40;;;21.80;;
55190;SDS011;41070;50.360;18.742;2022-11-11T17:32:17;44.50;;;21.10;;
55190;SDS011;41070;50.360;18.742;2022-11-11T17:34:45;39.20;;;21.60;;
55190;SDS011;41070;50.360;18.742;2022-11-11T17:37:13;40.90;;;22.20;;
55190;SDS011;41070;50.360;18.742;2022-11-11T17:39:43;42.30;;;23.30;;
55190;SDS011;41070;50.360;18.742;2022-11-11T17:42:11;39.20;;;24.20;;
55190;SDS011;41070;50.360;18.742;2022-11-11T17:44:40;41.80;;;22.50;;
55190;SDS011;41070;50.360;18.742;2022-11-11T17:47:07;55.70;;;27.10;;
55190;SDS011;41070;50.360;18.742;2022-11-11T17:49:35;52.70;;;26.30;;
55190;SDS011;41070;50.360;18.742;2022-11-11T17:52:03;51.40;;;23.90;;
55190;SDS011;41070;50.360;18.742;2022-11-11T17:54:31;45.90;;;21.40;;
55190;SDS011;41070;50.360;18.742;2022-11-11T17:56:58;46.90;;;24.30;;
55190;SDS011;41070;50.360;18.742;2022-11-11T17:59:26;49.50;;;26.20;;
55190;SDS011;41070;50.360;18.742;2022-11-11T18:01:55;48.50;;;26.00;;
55190;SDS011;41070;50.360;18.742;2022-11-11T18:04:23;49.20;;;27.10;;
55190;SDS011;41070;50.360;18.742;2022-11-11T18:06:56;47.60;;;26.70;;